sensor_id;sensor_type;location;lat;lon;timestamp;pressure;altitude;pressure_sealevel;temperature;humidity
55990;BME280;41875;55.806;38.082;2022-11-06T00:00:46;100562.50;;;2.33;56.88
55990;BME280;41875;55.806;38.082;2022-11-06T00:03:16;100563.53;;;2.12;57.80
55990;BME280;41875;55.806;38.082;2022-11-06T00:05:44;100560.50;;;1.87;58.33
55990;BME280;41875;55.806;38.082;2022-11-06T00:08:31;100567.84;;;2.13;57.28
55990;BME280;41875;55.806;38.082;2022-11-06T00:11:02;100570.69;;;2.09;57.85
55990;BME280;41875;55.806;38.082;2022-11-06T00:13:35;100560.69;;;2.00;58.09
55990;BME280;41875;55.806;38.082;2022-11-06T00:16:04;100562.09;;;2.07;57.72
55990;BME280;41875;55.806;38.082;2022-11-06T00:18:35;100564.75;;;2.05;57.90
55990;BME280;41875;55.806;38.082;2022-11-06T00:21:08;100565.28;;;2.12;57.33
55990;BME280;41875;55.806;38.082;2022-11-06T00:23:37;100568.63;;;2.16;57.45
55990;BME280;41875;55.806;38.082;2022-11-06T00:26:06;100560.41;;;2.39;56.90
55990;BME280;41875;55.806;38.082;2022-11-06T00:28:35;100562.13;;;2.23;57.27
55990;BME280;41875;55.806;38.082;2022-11-06T00:31:05;100558.53;;;2.59;56.53
55990;BME280;41875;55.806;38.082;2022-11-06T00:33:35;100559.66;;;2.71;56.11
55990;BME280;41875;55.806;38.082;2022-11-06T00:36:05;100547.56;;;3.00;54.97
55990;BME280;41875;55.806;38.082;2022-11-06T00:38:34;100554.31;;;2.72;55.38
55990;BME280;41875;55.806;38.082;2022-11-06T00:41:04;100550.09;;;2.70;55.74
55990;BME280;41875;55.806;38.082;2022-11-06T00:43:33;100552.69;;;2.54;56.09
55990;BME280;41875;55.806;38.082;2022-11-06T00:46:03;100556.00;;;2.06;57.23
55990;BME280;41875;55.806;38.082;2022-11-06T00:48:33;100556.03;;;1.89;57.76
55990;BME280;41875;55.806;38.082;2022-11-06T00:51:03;100549.28;;;2.36;56.71
55990;BME280;41875;55.806;38.082;2022-11-06T00:53:33;100552.53;;;2.57;55.94
55990;BME280;41875;55.806;38.082;2022-11-06T00:56:05;100549.94;;;2.89;55.04
55990;BME280;41875;55.806;38.082;2022-11-06T00:58:35;100546.56;;;2.71;55.15
55990;BME280;41875;55.806;38.082;2022-11-06T01:01:05;100554.66;;;2.33;56.53
55990;BME280;41875;55.806;38.082;2022-11-06T01:03:34;100551.50;;;2.10;57.55
55990;BME280;41875;55.806;38.082;2022-11-06T01:06:06;100553.97;;;1.78;58.70
55990;BME280;41875;55.806;38.082;2022-11-06T01:08:35;100545.78;;;1.84;58.85
55990;BME280;41875;55.806;38.082;2022-11-06T01:11:04;100557.56;;;1.93;58.86
55990;BME280;41875;55.806;38.082;2022-11-06T01:13:33;100554.19;;;1.56;60.23
55990;BME280;41875;55.806;38.082;2022-11-06T01:16:04;100550.09;;;2.03;58.76
55990;BME280;41875;55.806;38.082;2022-11-06T01:18:33;100566.16;;;1.95;58.47
55990;BME280;41875;55.806;38.082;2022-11-06T01:21:05;100560.13;;;2.28;58.34
55990;BME280;41875;55.806;38.082;2022-11-06T01:23:34;100562.22;;;2.21;57.96
55990;BME280;41875;55.806;38.082;2022-11-06T01:26:03;100567.34;;;2.40;57.91
55990;BME280;41875;55.806;38.082;2022-11-06T01:28:33;100551.34;;;1.95;58.84
55990;BME280;41875;55.806;38.082;2022-11-06T01:31:02;100564.84;;;1.86;59.10
55990;BME280;41875;55.806;38.082;2022-11-06T01:33:31;100552.66;;;1.87;59.31
55990;BME280;41875;55.806;38.082;2022-11-06T01:35:59;100553.09;;;2.12;58.43
55990;BME280;41875;55.806;38.082;2022-11-06T01:38:29;100555.84;;;1.92;59.34
55990;BME280;41875;55.806;38.082;2022-11-06T01:40:58;100551.88;;;2.02;58.78
55990;BME280;41875;55.806;38.082;2022-11-06T01:43:46;100552.00;;;2.17;58.37
55990;BME280;41875;55.806;38.082;2022-11-06T01:46:15;100564.78;;;1.88;59.32
55990;BME280;41875;55.806;38.082;2022-11-06T01:48:47;100557.84;;;2.04;59.17
55990;BME280;41875;55.806;38.082;2022-11-06T01:51:19;100548.09;;;2.08;58.66
55990;BME280;41875;55.806;38.082;2022-11-06T01:53:51;100554.31;;;2.56;57.01
55990;BME280;41875;55.806;38.082;2022-11-06T01:56:20;100563.34;;;2.67;56.27
55990;BME280;41875;55.806;38.082;2022-11-06T01:58:51;100559.84;;;2.34;56.65
55990;BME280;41875;55.806;38.082;2022-11-06T02:01:22;100557.41;;;2.13;57.10
55990;BME280;41875;55.806;38.082;2022-11-06T02:03:55;100558.75;;;2.21;56.71
55990;BME280;41875;55.806;38.082;2022-11-06T02:06:26;100547.28;;;2.41;55.65
55990;BME280;41875;55.806;38.082;2022-11-06T02:08:57;100547.69;;;2.33;55.58
55990;BME280;41875;55.806;38.082;2022-11-06T02:11:26;100549.03;;;2.40;55.38
55990;BME280;41875;55.806;38.082;2022-11-06T02:14:01;100549.44;;;2.33;55.54
55990;BME280;41875;55.806;38.082;2022-11-06T02:16:38;100550.34;;;2.32;55.33
55990;BME280;41875;55.806;38.082;2022-11-06T02:19:28;100555.19;;;2.39;55.53
55990;BME280;41875;55.806;38.082;2022-11-06T02:22:20;100547.31;;;2.23;55.52
55990;BME280;41875;55.806;38.082;2022-11-06T02:25:02;100550.19;;;2.35;55.39
55990;BME280;41875;55.806;38.082;2022-11-06T02:27:35;100537.25;;;2.49;54.72
55990;BME280;41875;55.806;38.082;2022-11-06T02:30:06;100541.94;;;2.26;55.16
55990;BME280;41875;55.806;38.082;2022-11-06T02:32:39;100552.22;;;2.12;55.74
55990;BME280;41875;55.806;38.082;2022-11-06T02:35:15;100531.13;;;2.33;55.11
55990;BME280;41875;55.806;38.082;2022-11-06T02:37:46;100540.63;;;2.51;54.60
55990;BME280;41875;55.806;38.082;2022-11-06T02:40:16;100529.06;;;2.22;55.63
55990;BME280;41875;55.806;38.082;2022-11-06T02:42:49;100539.25;;;2.10;55.60
55990;BME280;41875;55.806;38.082;2022-11-06T02:45:22;100541.94;;;2.42;54.91
55990;BME280;41875;55.806;38.082;2022-11-06T02:47:52;100545.41;;;2.09;55.76
55990;BME280;41875;55.806;38.082;2022-11-06T02:50:25;100534.47;;;2.19;55.16
55990;BME280;41875;55.806;38.082;2022-11-06T02:52:59;100534.38;;;2.20;55.27
55990;BME280;41875;55.806;38.082;2022-11-06T02:55:33;100538.34;;;2.27;55.02
55990;BME280;41875;55.806;38.082;2022-11-06T02:58:06;100522.34;;;2.18;55.51
55990;BME280;41875;55.806;38.082;2022-11-06T03:00:39;100530.81;;;2.39;54.83
55990;BME280;41875;55.806;38.082;2022-11-06T03:03:14;100529.06;;;2.22;55.22
55990;BME280;41875;55.806;38.082;2022-11-06T03:05:48;100528.44;;;2.34;55.04
55990;BME280;41875;55.806;38.082;2022-11-06T03:08:25;100529.38;;;2.33;55.13
55990;BME280;41875;55.806;38.082;2022-11-06T03:11:02;100530.75;;;2.23;54.83
55990;BME280;41875;55.806;38.082;2022-11-06T03:13:41;100529.03;;;2.06;55.59
55990;BME280;41875;55.806;38.082;2022-11-06T03:16:22;100526.72;;;2.00;55.59
55990;BME280;41875;55.806;38.082;2022-11-06T03:18:59;100534.59;;;2.33;54.76
55990;BME280;41875;55.806;38.082;2022-11-06T03:21:35;100529.91;;;1.89;55.80
55990;BME280;41875;55.806;38.082;2022-11-06T03:24:12;100527.50;;;1.84;56.22
55990;BME280;41875;55.806;38.082;2022-11-06T03:26:45;100530.06;;;1.86;56.00
55990;BME280;41875;55.806;38.082;2022-11-06T03:29:19;100531.28;;;1.61;56.95
55990;BME280;41875;55.806;38.082;2022-11-06T03:31:52;100533.44;;;1.70;56.30
55990;BME280;41875;55.806;38.082;2022-11-06T03:34:27;100527.38;;;2.21;55.02
55990;BME280;41875;55.806;38.082;2022-11-06T03:37:01;100524.88;;;2.35;54.69
55990;BME280;41875;55.806;38.082;2022-11-06T03:39:36;100518.84;;;2.17;54.70
55990;BME280;41875;55.806;38.082;2022-11-06T03:42:10;100520.84;;;2.12;55.42
55990;BME280;41875;55.806;38.082;2022-11-06T03:44:44;100522.94;;;2.05;55.58
55990;BME280;41875;55.806;38.082;2022-11-06T03:47:18;100520.84;;;2.12;55.67
55990;BME280;41875;55.806;38.082;2022-11-06T03:49:52;100520.66;;;2.33;54.75
55990;BME280;41875;55.806;38.082;2022-11-06T03:52:25;100523.97;;;2.03;55.78
55990;BME280;41875;55.806;38.082;2022-11-06T03:54:59;100518.84;;;2.17;55.25
55990;BME280;41875;55.806;38.082;2022-11-06T03:57:34;100524.25;;;2.48;54.48
55990;BME280;41875;55.806;38.082;2022-11-06T04:00:07;100520.19;;;2.08;55.41
55990;BME280;41875;55.806;38.082;2022-11-06T04:02:44;100512.06;;;1.79;56.21
55990;BME280;41875;55.806;38.082;2022-11-06T04:05:19;100515.06;;;1.72;56.92
55990;BME280;41875;55.806;38.082;2022-11-06T04:07:52;100511.78;;;1.86;55.99
55990;BME280;41875;55.806;38.082;2022-11-06T04:10:44;100515.59;;;1.96;56.03
55990;BME280;41875;55.806;38.082;2022-11-06T04:13:47;100520.50;;;2.36;54.83
55990;BME280;41875;55.806;38.082;2022-11-06T04:16:32;100525.53;;;2.23;54.74
55990;BME280;41875;55.806;38.082;2022-11-06T04:19:01;100526.47;;;2.71;53.47
55990;BME280;41875;55.806;38.082;2022-11-06T04:21:32;100521.38;;;2.68;54.11
55990;BME280;41875;55.806;38.082;2022-11-06T04:24:20;100527.38;;;2.21;54.46
55990;BME280;41875;55.806;38.082;2022-11-06T04:27:24;100518.63;;;2.22;54.88
55990;BME280;41875;55.806;38.082;2022-11-06T04:30:02;100520.75;;;2.31;54.37
55990;BME280;41875;55.806;38.082;2022-11-06T04:32:43;100519.13;;;1.77;55.81
55990;BME280;41875;55.806;38.082;2022-11-06T04:35:23;100523.88;;;2.04;54.94
55990;BME280;41875;55.806;38.082;2022-11-06T04:37:59;100520.81;;;1.78;55.67
55990;BME280;41875;55.806;38.082;2022-11-06T04:40:40;100519.28;;;1.92;55.41
55990;BME280;41875;55.806;38.082;2022-11-06T04:43:14;100511.38;;;1.58;56.38
55990;BME280;41875;55.806;38.082;2022-11-06T04:45:48;100513.75;;;1.80;56.06
55990;BME280;41875;55.806;38.082;2022-11-06T04:48:21;100529.31;;;1.29;57.41
55990;BME280;41875;55.806;38.082;2022-11-06T04:50:53;100525.19;;;1.43;57.10
55990;BME280;41875;55.806;38.082;2022-11-06T04:53:23;100526.81;;;1.45;56.75
55990;BME280;41875;55.806;38.082;2022-11-06T04:55:54;100522.28;;;1.84;55.85
55990;BME280;41875;55.806;38.082;2022-11-06T04:58:23;100529.19;;;1.67;55.84
55990;BME280;41875;55.806;38.082;2022-11-06T05:00:51;100522.19;;;1.33;56.87
55990;BME280;41875;55.806;38.082;2022-11-06T05:03:21;100524.53;;;1.57;55.88
55990;BME280;41875;55.806;38.082;2022-11-06T05:05:50;100528.50;;;1.64;56.31
55990;BME280;41875;55.806;38.082;2022-11-06T05:08:19;100529.66;;;1.58;56.26
55990;BME280;41875;55.806;38.082;2022-11-06T05:10:48;100538.19;;;1.62;56.12
55990;BME280;41875;55.806;38.082;2022-11-06T05:13:16;100537.44;;;1.42;56.48
55990;BME280;41875;55.806;38.082;2022-11-06T05:15:46;100541.91;;;1.58;55.94
55990;BME280;41875;55.806;38.082;2022-11-06T05:18:15;100545.34;;;1.76;55.30
55990;BME280;41875;55.806;38.082;2022-11-06T05:20:45;100546.25;;;1.57;55.84
55990;BME280;41875;55.806;38.082;2022-11-06T05:23:13;100546.72;;;1.48;55.87
55990;BME280;41875;55.806;38.082;2022-11-06T05:25:41;100539.81;;;1.64;55.16
55990;BME280;41875;55.806;38.082;2022-11-06T05:28:10;100543.31;;;2.16;54.79
55990;BME280;41875;55.806;38.082;2022-11-06T05:30:38;100546.00;;;1.44;56.04
55990;BME280;41875;55.806;38.082;2022-11-06T05:33:07;100548.00;;;1.39;55.58
55990;BME280;41875;55.806;38.082;2022-11-06T05:35:38;100537.25;;;1.63;54.99
55990;BME280;41875;55.806;38.082;2022-11-06T05:38:17;100542.28;;;1.50;55.55
55990;BME280;41875;55.806;38.082;2022-11-06T05:40:46;100547.88;;;1.42;55.92
55990;BME280;41875;55.806;38.082;2022-11-06T05:43:14;100542.78;;;1.92;54.73
55990;BME280;41875;55.806;38.082;2022-11-06T05:45:44;100539.16;;;2.12;53.95
55990;BME280;41875;55.806;38.082;2022-11-06T05:48:13;100538.81;;;2.02;54.00
55990;BME280;41875;55.806;38.082;2022-11-06T05:50:41;100542.72;;;2.44;53.25
55990;BME280;41875;55.806;38.082;2022-11-06T05:53:14;100542.78;;;2.09;54.51
55990;BME280;41875;55.806;38.082;2022-11-06T05:55:45;100544.66;;;2.41;53.47
55990;BME280;41875;55.806;38.082;2022-11-06T05:58:14;100547.19;;;1.91;54.54
55990;BME280;41875;55.806;38.082;2022-11-06T06:00:44;100537.97;;;1.84;54.43
55990;BME280;41875;55.806;38.082;2022-11-06T06:03:12;100540.19;;;1.74;54.67
55990;BME280;41875;55.806;38.082;2022-11-06T06:05:44;100544.59;;;2.25;53.36
55990;BME280;41875;55.806;38.082;2022-11-06T06:08:23;100537.56;;;1.92;53.95
55990;BME280;41875;55.806;38.082;2022-11-06T06:10:58;100545.63;;;1.70;54.01
55990;BME280;41875;55.806;38.082;2022-11-06T06:13:27;100554.03;;;1.94;53.83
55990;BME280;41875;55.806;38.082;2022-11-06T06:15:59;100555.00;;;2.26;53.25
55990;BME280;41875;55.806;38.082;2022-11-06T06:18:28;100540.91;;;1.95;53.71
55990;BME280;41875;55.806;38.082;2022-11-06T06:20:57;100549.28;;;1.85;54.53
55990;BME280;41875;55.806;38.082;2022-11-06T06:23:26;100541.56;;;1.46;55.36
55990;BME280;41875;55.806;38.082;2022-11-06T06:25:56;100539.53;;;2.22;53.38
55990;BME280;41875;55.806;38.082;2022-11-06T06:28:25;100541.44;;;2.36;53.08
55990;BME280;41875;55.806;38.082;2022-11-06T06:30:54;100537.88;;;1.50;54.87
55990;BME280;41875;55.806;38.082;2022-11-06T06:33:27;100527.75;;;1.79;54.69
55990;BME280;41875;55.806;38.082;2022-11-06T06:35:56;100533.09;;;2.11;53.77
55990;BME280;41875;55.806;38.082;2022-11-06T06:38:25;100528.03;;;2.08;53.61
55990;BME280;41875;55.806;38.082;2022-11-06T06:40:53;100527.38;;;2.21;53.43
55990;BME280;41875;55.806;38.082;2022-11-06T06:43:23;100524.56;;;2.08;53.58
55990;BME280;41875;55.806;38.082;2022-11-06T06:45:58;100500.13;;;2.09;53.63
55990;BME280;41875;55.806;38.082;2022-11-06T06:48:37;100461.16;;;2.04;52.96
55990;BME280;41875;55.806;38.082;2022-11-06T06:51:07;100484.63;;;1.88;53.99
55990;BME280;41875;55.806;38.082;2022-11-06T06:53:36;100508.94;;;1.73;54.89
55990;BME280;41875;55.806;38.082;2022-11-06T06:56:08;100510.56;;;1.58;55.59
55990;BME280;41875;55.806;38.082;2022-11-06T06:58:39;100508.00;;;1.74;55.24
55990;BME280;41875;55.806;38.082;2022-11-06T07:01:09;100500.66;;;2.16;53.78
55990;BME280;41875;55.806;38.082;2022-11-06T07:03:44;100500.88;;;2.44;53.05
55990;BME280;41875;55.806;38.082;2022-11-06T07:09:11;100491.44;;;2.74;51.96
55990;BME280;41875;55.806;38.082;2022-11-06T07:11:40;100502.94;;;2.22;53.21
55990;BME280;41875;55.806;38.082;2022-11-06T07:14:10;100522.03;;;2.40;53.18
55990;BME280;41875;55.806;38.082;2022-11-06T07:16:39;100517.63;;;2.24;53.75
55990;BME280;41875;55.806;38.082;2022-11-06T07:19:10;100520.22;;;2.90;52.21
55990;BME280;41875;55.806;38.082;2022-11-06T07:21:41;100520.19;;;1.91;55.42
55990;BME280;41875;55.806;38.082;2022-11-06T07:24:09;100520.97;;;2.76;53.55
55990;BME280;41875;55.806;38.082;2022-11-06T07:26:37;100522.38;;;2.50;53.51
55990;BME280;41875;55.806;38.082;2022-11-06T07:29:07;100523.31;;;2.15;54.48
55990;BME280;41875;55.806;38.082;2022-11-06T07:31:37;100504.59;;;2.72;53.06
55990;BME280;41875;55.806;38.082;2022-11-06T07:34:08;100518.66;;;2.38;53.63
55990;BME280;41875;55.806;38.082;2022-11-06T07:36:38;100518.09;;;2.49;53.82
55990;BME280;41875;55.806;38.082;2022-11-06T07:39:06;100522.25;;;2.19;54.62
55990;BME280;41875;55.806;38.082;2022-11-06T07:41:35;100500.94;;;2.43;53.58
55990;BME280;41875;55.806;38.082;2022-11-06T07:44:04;100526.13;;;2.62;53.84
55990;BME280;41875;55.806;38.082;2022-11-06T07:46:33;100517.38;;;2.79;53.15
55990;BME280;41875;55.806;38.082;2022-11-06T07:49:03;100511.25;;;1.79;55.43
55990;BME280;41875;55.806;38.082;2022-11-06T07:51:35;100510.88;;;2.20;54.69
55990;BME280;41875;55.806;38.082;2022-11-06T07:54:05;100513.19;;;2.09;55.35
55990;BME280;41875;55.806;38.082;2022-11-06T08:00:52;100458.53;;;2.38;53.03
55990;BME280;41875;55.806;38.082;2022-11-06T08:03:31;100500.59;;;1.82;55.41
55990;BME280;41875;55.806;38.082;2022-11-06T08:06:03;100502.06;;;2.39;53.96
55990;BME280;41875;55.806;38.082;2022-11-06T08:13:15;100455.03;;;2.21;53.87
55990;BME280;41875;55.806;38.082;2022-11-06T08:16:10;100459.00;;;2.28;53.59
55990;BME280;41875;55.806;38.082;2022-11-06T08:18:40;100461.09;;;1.55;56.00
55990;BME280;41875;55.806;38.082;2022-11-06T08:21:13;100516.03;;;2.04;55.42
55990;BME280;41875;55.806;38.082;2022-11-06T08:24:17;100517.41;;;2.11;55.70
55990;BME280;41875;55.806;38.082;2022-11-06T08:27:04;100505.03;;;1.97;55.68
55990;BME280;41875;55.806;38.082;2022-11-06T08:29:48;100502.25;;;2.18;55.52
55990;BME280;41875;55.806;38.082;2022-11-06T08:32:17;100510.25;;;2.49;54.78
55990;BME280;41875;55.806;38.082;2022-11-06T08:34:48;100459.03;;;1.95;54.76
55990;BME280;41875;55.806;38.082;2022-11-06T08:37:27;100487.00;;;1.93;55.30
55990;BME280;41875;55.806;38.082;2022-11-06T08:40:06;100490.53;;;1.92;55.46
55990;BME280;41875;55.806;38.082;2022-11-06T08:42:35;100496.34;;;2.15;54.79
55990;BME280;41875;55.806;38.082;2022-11-06T08:45:08;100512.75;;;1.83;55.68
55990;BME280;41875;55.806;38.082;2022-11-06T08:47:37;100519.88;;;2.64;54.12
55990;BME280;41875;55.806;38.082;2022-11-06T08:50:06;100516.84;;;2.72;54.06
55990;BME280;41875;55.806;38.082;2022-11-06T08:52:36;100509.59;;;2.93;53.71
55990;BME280;41875;55.806;38.082;2022-11-06T08:55:07;100505.63;;;2.70;53.50
55990;BME280;41875;55.806;38.082;2022-11-06T08:57:38;100502.47;;;2.47;54.26
55990;BME280;41875;55.806;38.082;2022-11-06T09:00:08;100503.66;;;2.41;54.29
55990;BME280;41875;55.806;38.082;2022-11-06T09:02:39;100493.13;;;2.09;54.81
55990;BME280;41875;55.806;38.082;2022-11-06T09:05:18;100497.84;;;2.68;53.55
55990;BME280;41875;55.806;38.082;2022-11-06T09:07:52;100501.41;;;2.83;53.20
55990;BME280;41875;55.806;38.082;2022-11-06T09:10:25;100476.88;;;2.36;53.81
55990;BME280;41875;55.806;38.082;2022-11-06T09:13:24;100496.31;;;3.12;52.80
55990;BME280;41875;55.806;38.082;2022-11-06T09:17:03;100483.41;;;2.45;53.21
55990;BME280;41875;55.806;38.082;2022-11-06T09:20:13;100496.09;;;3.47;51.67
55990;BME280;41875;55.806;38.082;2022-11-06T09:22:42;100485.88;;;2.64;52.81
55990;BME280;41875;55.806;38.082;2022-11-06T09:25:14;100459.13;;;2.09;53.86
55990;BME280;41875;55.806;38.082;2022-11-06T09:27:47;100499.44;;;2.55;53.79
55990;BME280;41875;55.806;38.082;2022-11-06T09:30:26;100426.19;;;2.07;53.41
55990;BME280;41875;55.806;38.082;2022-11-06T09:32:59;100470.00;;;2.51;53.40
55990;BME280;41875;55.806;38.082;2022-11-06T09:35:38;100474.69;;;1.95;54.97
55990;BME280;41875;55.806;38.082;2022-11-06T09:38:10;100498.63;;;2.21;54.79
55990;BME280;41875;55.806;38.082;2022-11-06T09:40:42;100495.19;;;2.20;54.72
55990;BME280;41875;55.806;38.082;2022-11-06T09:43:24;100483.56;;;3.06;52.86
55990;BME280;41875;55.806;38.082;2022-11-06T09:46:21;100490.22;;;2.32;54.57
55990;BME280;41875;55.806;38.082;2022-11-06T09:48:56;100488.31;;;2.67;53.61
55990;BME280;41875;55.806;38.082;2022-11-06T09:51:35;100478.88;;;2.65;53.04
55990;BME280;41875;55.806;38.082;2022-11-06T09:54:14;100457.09;;;2.32;54.11
55990;BME280;41875;55.806;38.082;2022-11-06T09:56:51;100477.81;;;2.35;54.22
55990;BME280;41875;55.806;38.082;2022-11-06T09:59:23;100485.25;;;3.23;51.68
55990;BME280;41875;55.806;38.082;2022-11-06T10:01:57;100482.41;;;1.63;55.23
55990;BME280;41875;55.806;38.082;2022-11-06T10:04:37;100476.75;;;1.72;55.48
55990;BME280;41875;55.806;38.082;2022-11-06T10:07:20;100474.16;;;2.22;55.08
55990;BME280;41875;55.806;38.082;2022-11-06T10:10:17;100471.09;;;2.47;53.95
55990;BME280;41875;55.806;38.082;2022-11-06T10:16:19;100462.41;;;1.97;55.38
55990;BME280;41875;55.806;38.082;2022-11-06T10:18:55;100465.59;;;2.52;54.20
55990;BME280;41875;55.806;38.082;2022-11-06T10:21:39;100459.50;;;2.19;54.95
55990;BME280;41875;55.806;38.082;2022-11-06T10:24:18;100462.41;;;2.63;53.79
55990;BME280;41875;55.806;38.082;2022-11-06T10:26:53;100446.06;;;3.66;50.79
55990;BME280;41875;55.806;38.082;2022-11-06T10:29:52;100422.97;;;2.82;52.04
55990;BME280;41875;55.806;38.082;2022-11-06T10:32:45;100455.13;;;2.84;52.96
55990;BME280;41875;55.806;38.082;2022-11-06T10:35:19;100447.06;;;3.03;52.30
55990;BME280;41875;55.806;38.082;2022-11-06T10:37:58;100446.19;;;2.24;54.25
55990;BME280;41875;55.806;38.082;2022-11-06T10:40:31;100419.31;;;1.88;55.16
55990;BME280;41875;55.806;38.082;2022-11-06T10:43:13;100448.09;;;3.16;52.17
55990;BME280;41875;55.806;38.082;2022-11-06T10:45:49;100437.66;;;2.68;52.58
55990;BME280;41875;55.806;38.082;2022-11-06T10:48:22;100449.47;;;2.92;52.84
55990;BME280;41875;55.806;38.082;2022-11-06T10:51:14;100454.53;;;2.95;52.53
55990;BME280;41875;55.806;38.082;2022-11-06T10:53:53;100454.81;;;1.92;55.48
55990;BME280;41875;55.806;38.082;2022-11-06T10:56:38;100453.94;;;1.92;56.14
55990;BME280;41875;55.806;38.082;2022-11-06T10:59:13;100436.53;;;1.92;55.62
55990;BME280;41875;55.806;38.082;2022-11-06T11:01:44;100447.91;;;1.74;55.78
55990;BME280;41875;55.806;38.082;2022-11-06T11:04:16;100449.97;;;2.18;55.23
55990;BME280;41875;55.806;38.082;2022-11-06T11:06:44;100452.66;;;1.83;56.45
55990;BME280;41875;55.806;38.082;2022-11-06T11:09:26;100466.25;;;2.23;54.91
55990;BME280;41875;55.806;38.082;2022-11-06T11:11:59;100461.50;;;2.80;53.41
55990;BME280;41875;55.806;38.082;2022-11-06T11:14:29;100447.91;;;2.57;52.92
55990;BME280;41875;55.806;38.082;2022-11-06T11:17:07;100470.16;;;1.98;55.23
55990;BME280;41875;55.806;38.082;2022-11-06T11:19:39;100462.31;;;2.48;53.15
55990;BME280;41875;55.806;38.082;2022-11-06T11:22:18;100462.63;;;2.26;54.51
55990;BME280;41875;55.806;38.082;2022-11-06T11:25:01;100458.59;;;2.36;54.63
55990;BME280;41875;55.806;38.082;2022-11-06T11:27:42;100444.38;;;2.42;54.29
55990;BME280;41875;55.806;38.082;2022-11-06T11:30:21;100439.56;;;3.43;52.57
55990;BME280;41875;55.806;38.082;2022-11-06T11:32:59;100405.28;;;2.71;52.48
55990;BME280;41875;55.806;38.082;2022-11-06T11:35:31;100421.22;;;3.13;51.95
55990;BME280;41875;55.806;38.082;2022-11-06T11:38:10;100381.91;;;2.68;52.55
55990;BME280;41875;55.806;38.082;2022-11-06T11:40:48;100411.53;;;2.20;53.77
55990;BME280;41875;55.806;38.082;2022-11-06T11:44:04;100372.13;;;1.91;53.96
55990;BME280;41875;55.806;38.082;2022-11-06T11:46:46;100398.78;;;2.14;53.69
55990;BME280;41875;55.806;38.082;2022-11-06T11:49:41;100386.97;;;2.71;53.04
55990;BME280;41875;55.806;38.082;2022-11-06T11:52:24;100391.38;;;2.54;52.88
55990;BME280;41875;55.806;38.082;2022-11-06T11:55:27;100409.25;;;2.62;52.58
55990;BME280;41875;55.806;38.082;2022-11-06T11:58:21;100400.19;;;2.04;54.24
55990;BME280;41875;55.806;38.082;2022-11-06T12:01:14;100396.97;;;1.98;54.45
55990;BME280;41875;55.806;38.082;2022-11-06T12:03:48;100430.91;;;2.16;54.73
55990;BME280;41875;55.806;38.082;2022-11-06T12:06:27;100430.91;;;2.16;54.60
55990;BME280;41875;55.806;38.082;2022-11-06T12:09:12;100430.13;;;2.14;54.40
55990;BME280;41875;55.806;38.082;2022-11-06T12:11:42;100444.28;;;2.43;54.04
55990;BME280;41875;55.806;38.082;2022-11-06T12:14:38;100428.06;;;2.53;53.35
55990;BME280;41875;55.806;38.082;2022-11-06T12:17:18;100370.03;;;2.30;53.59
55990;BME280;41875;55.806;38.082;2022-11-06T12:19:51;100421.91;;;2.54;53.79
55990;BME280;41875;55.806;38.082;2022-11-06T12:22:44;100360.91;;;2.53;52.96
55990;BME280;41875;55.806;38.082;2022-11-06T12:25:24;100391.34;;;1.57;55.84
55990;BME280;41875;55.806;38.082;2022-11-06T12:28:09;100379.81;;;1.94;55.14
55990;BME280;41875;55.806;38.082;2022-11-06T12:30:45;100397.88;;;2.63;53.78
55990;BME280;41875;55.806;38.082;2022-11-06T12:33:23;100372.28;;;2.04;54.50
55990;BME280;41875;55.806;38.082;2022-11-06T12:36:28;100345.06;;;1.92;54.74
55990;BME280;41875;55.806;38.082;2022-11-06T12:39:24;100334.81;;;2.68;53.23
55990;BME280;41875;55.806;38.082;2022-11-06T12:42:14;100393.78;;;2.57;53.63
55990;BME280;41875;55.806;38.082;2022-11-06T12:44:50;100375.69;;;2.54;54.09
55990;BME280;41875;55.806;38.082;2022-11-06T12:47:47;100371.13;;;2.88;52.93
55990;BME280;41875;55.806;38.082;2022-11-06T12:51:03;100393.84;;;3.18;52.56
55990;BME280;41875;55.806;38.082;2022-11-06T12:53:49;100337.25;;;2.71;53.00
55990;BME280;41875;55.806;38.082;2022-11-06T12:56:30;100337.44;;;3.13;51.86
55990;BME280;41875;55.806;38.082;2022-11-06T12:59:23;100363.09;;;3.22;51.52
55990;BME280;41875;55.806;38.082;2022-11-06T13:02:15;100380.50;;;3.23;51.89
55990;BME280;41875;55.806;38.082;2022-11-06T13:05:01;100372.78;;;1.95;54.61
55990;BME280;41875;55.806;38.082;2022-11-06T13:08:04;100392.78;;;2.12;55.18
55990;BME280;41875;55.806;38.082;2022-11-06T13:10:50;100390.78;;;2.17;54.61
55990;BME280;41875;55.806;38.082;2022-11-06T13:13:58;100389.66;;;2.05;55.25
55990;BME280;41875;55.806;38.082;2022-11-06T13:16:51;100347.75;;;1.75;55.39
55990;BME280;41875;55.806;38.082;2022-11-06T13:19:52;100370.28;;;1.93;55.62
55990;BME280;41875;55.806;38.082;2022-11-06T13:25:48;100380.13;;;2.04;55.23
55990;BME280;41875;55.806;38.082;2022-11-06T13:28:32;100321.78;;;1.38;55.99
55990;BME280;41875;55.806;38.082;2022-11-06T13:31:55;100328.28;;;1.80;55.69
55990;BME280;41875;55.806;38.082;2022-11-06T13:35:23;100314.88;;;1.03;57.55
55990;BME280;41875;55.806;38.082;2022-11-06T13:39:41;100381.97;;;1.52;57.49
55990;BME280;41875;55.806;38.082;2022-11-06T13:42:43;100390.22;;;1.27;57.89
55990;BME280;41875;55.806;38.082;2022-11-06T13:45:26;100385.19;;;1.58;57.24
55990;BME280;41875;55.806;38.082;2022-11-06T13:48:12;100386.06;;;2.24;56.04
55990;BME280;41875;55.806;38.082;2022-11-06T13:50:56;100356.47;;;1.58;56.66
55990;BME280;41875;55.806;38.082;2022-11-06T13:53:32;100383.53;;;1.73;57.25
55990;BME280;41875;55.806;38.082;2022-11-06T13:56:22;100376.06;;;1.49;57.65
55990;BME280;41875;55.806;38.082;2022-11-06T13:59:20;100332.44;;;1.51;57.95